sensor_id;sensor_type;location;lat;lon;timestamp;pressure;altitude;pressure_sealevel;temperature;humidity
26083;BME280;13848;49.018;12.078;2023-01-30T00:01:51;98193.06;;;-1.10;75.84
26083;BME280;13848;49.018;12.078;2023-01-30T00:04:19;98181.41;;;-1.28;76.40
26083;BME280;13848;49.018;12.078;2023-01-30T00:06:44;98186.69;;;-1.38;76.47
26083;BME280;13848;49.018;12.078;2023-01-30T00:09:12;98189.25;;;-1.27;77.08
26083;BME280;13848;49.018;12.078;2023-01-30T00:11:39;98186.31;;;-1.24;76.55
26083;BME280;13848;49.018;12.078;2023-01-30T00:14:05;98189.84;;;-1.04;75.75
26083;BME280;13848;49.018;12.078;2023-01-30T00:16:30;98184.69;;;-1.05;75.63
26083;BME280;13848;49.018;12.078;2023-01-30T00:18:56;98175.22;;;-1.08;75.56
26083;BME280;13848;49.018;12.078;2023-01-30T00:21:24;98172.53;;;-1.18;75.77
26083;BME280;13848;49.018;12.078;2023-01-30T00:23:50;98176.47;;;-1.02;75.92
26083;BME280;13848;49.018;12.078;2023-01-30T00:26:16;98174.25;;;-0.88;75.45
26083;BME280;13848;49.018;12.078;2023-01-30T00:28:41;98165.31;;;-1.06;75.08
26083;BME280;13848;49.018;12.078;2023-01-30T00:31:08;98165.91;;;-1.02;75.64
26083;BME280;13848;49.018;12.078;2023-01-30T00:33:35;98167.44;;;-1.10;75.75
26083;BME280;13848;49.018;12.078;2023-01-30T00:36:02;98166.00;;;-1.14;76.01
26083;BME280;13848;49.018;12.078;2023-01-30T00:38:30;98161.56;;;-1.13;75.97
26083;BME280;13848;49.018;12.078;2023-01-30T00:40:56;98147.47;;;-1.23;75.97
26083;BME280;13848;49.018;12.078;2023-01-30T00:43:22;98149.38;;;-1.45;76.71
26083;BME280;13848;49.018;12.078;2023-01-30T00:45:49;98146.88;;;-1.37;76.43
26083;BME280;13848;49.018;12.078;2023-01-30T00:48:18;98144.13;;;-1.25;75.92
26083;BME280;13848;49.018;12.078;2023-01-30T00:50:44;98146.38;;;-1.21;76.09
26083;BME280;13848;49.018;12.078;2023-01-30T00:53:10;98134.69;;;-1.18;76.15
26083;BME280;13848;49.018;12.078;2023-01-30T00:55:38;98132.72;;;-1.16;75.44
26083;BME280;13848;49.018;12.078;2023-01-30T00:58:04;98134.97;;;-1.02;75.33
26083;BME280;13848;49.018;12.078;2023-01-30T01:00:30;98134.41;;;-1.05;75.07
26083;BME280;13848;49.018;12.078;2023-01-30T01:02:56;98126.59;;;-1.26;76.06
26083;BME280;13848;49.018;12.078;2023-01-30T01:05:22;98114.88;;;-1.34;75.99
26083;BME280;13848;49.018;12.078;2023-01-30T01:07:48;98115.69;;;-1.43;77.32
26083;BME280;13848;49.018;12.078;2023-01-30T01:10:14;98105.00;;;-1.31;76.28
26083;BME280;13848;49.018;12.078;2023-01-30T01:12:42;98113.22;;;-1.25;76.26
26083;BME280;13848;49.018;12.078;2023-01-30T01:15:09;98109.34;;;-1.11;75.69
26083;BME280;13848;49.018;12.078;2023-01-30T01:17:35;98104.03;;;-1.11;75.79
26083;BME280;13848;49.018;12.078;2023-01-30T01:20:01;98086.19;;;-1.28;76.22
26083;BME280;13848;49.018;12.078;2023-01-30T01:22:27;98103.47;;;-1.24;75.85
26083;BME280;13848;49.018;12.078;2023-01-30T01:24:53;98107.94;;;-1.25;76.10
26083;BME280;13848;49.018;12.078;2023-01-30T01:27:19;98101.66;;;-1.34;76.57
26083;BME280;13848;49.018;12.078;2023-01-30T01:29:46;98104.19;;;-1.32;77.08
26083;BME280;13848;49.018;12.078;2023-01-30T01:32:12;98110.97;;;-1.29;76.75
26083;BME280;13848;49.018;12.078;2023-01-30T01:34:38;98108.75;;;-1.34;76.55
26083;BME280;13848;49.018;12.078;2023-01-30T01:37:04;98106.13;;;-1.24;76.29
26083;BME280;13848;49.018;12.078;2023-01-30T01:39:30;98109.06;;;-1.27;76.64
26083;BME280;13848;49.018;12.078;2023-01-30T01:41:56;98109.75;;;-1.25;76.55
26083;BME280;13848;49.018;12.078;2023-01-30T01:44:22;98119.47;;;-1.36;76.61
26083;BME280;13848;49.018;12.078;2023-01-30T01:46:52;98126.84;;;-1.29;76.62
26083;BME280;13848;49.018;12.078;2023-01-30T01:49:23;98129.22;;;-1.17;76.71
26083;BME280;13848;49.018;12.078;2023-01-30T01:51:54;98131.59;;;-1.23;76.29
26083;BME280;13848;49.018;12.078;2023-01-30T01:54:25;98151.38;;;-1.18;76.35
26083;BME280;13848;49.018;12.078;2023-01-30T01:56:54;98153.88;;;-1.16;76.43
26083;BME280;13848;49.018;12.078;2023-01-30T01:59:23;98160.59;;;-1.12;76.28
26083;BME280;13848;49.018;12.078;2023-01-30T02:01:55;98159.47;;;-1.00;75.48
26083;BME280;13848;49.018;12.078;2023-01-30T02:04:23;98149.75;;;-0.90;74.99
26083;BME280;13848;49.018;12.078;2023-01-30T02:06:51;98153.63;;;-0.94;75.41
26083;BME280;13848;49.018;12.078;2023-01-30T02:09:17;98144.16;;;-1.06;75.91
26083;BME280;13848;49.018;12.078;2023-01-30T02:11:46;98134.34;;;-1.35;76.65
26083;BME280;13848;49.018;12.078;2023-01-30T02:14:14;98123.22;;;-1.38;76.28
26083;BME280;13848;49.018;12.078;2023-01-30T02:16:43;98117.66;;;-1.35;76.19
26083;BME280;13848;49.018;12.078;2023-01-30T02:19:22;98128.38;;;-1.37;76.70
26083;BME280;13848;49.018;12.078;2023-01-30T02:22:05;98132.75;;;-1.07;75.80
26083;BME280;13848;49.018;12.078;2023-01-30T02:24:55;98125.25;;;-0.92;75.52
26083;BME280;13848;49.018;12.078;2023-01-30T02:27:43;98121.31;;;-1.07;75.82
26083;BME280;13848;49.018;12.078;2023-01-30T02:30:39;98122.53;;;-1.30;75.77
26083;BME280;13848;49.018;12.078;2023-01-30T02:33:13;98113.94;;;-1.13;75.97
26083;BME280;13848;49.018;12.078;2023-01-30T02:35:48;98106.00;;;-0.94;74.78
26083;BME280;13848;49.018;12.078;2023-01-30T02:38:26;98099.59;;;-1.01;75.20
26083;BME280;13848;49.018;12.078;2023-01-30T02:41:00;98089.31;;;-1.04;74.56
26083;BME280;13848;49.018;12.078;2023-01-30T02:43:31;98083.84;;;-1.22;75.39
26083;BME280;13848;49.018;12.078;2023-01-30T02:46:04;98089.81;;;-1.29;75.18
26083;BME280;13848;49.018;12.078;2023-01-30T02:48:36;98084.28;;;-1.26;75.21
26083;BME280;13848;49.018;12.078;2023-01-30T02:51:06;98066.47;;;-1.15;75.17
26083;BME280;13848;49.018;12.078;2023-01-30T02:53:35;98069.78;;;-1.22;74.57
26083;BME280;13848;49.018;12.078;2023-01-30T02:56:01;98076.44;;;-1.28;75.42
26083;BME280;13848;49.018;12.078;2023-01-30T02:58:31;98078.81;;;-1.35;75.29
26083;BME280;13848;49.018;12.078;2023-01-30T03:01:25;98073.16;;;-1.20;75.11
26083;BME280;13848;49.018;12.078;2023-01-30T03:04:20;98069.78;;;-1.13;74.34
26083;BME280;13848;49.018;12.078;2023-01-30T03:07:01;98067.16;;;-1.03;74.20
26083;BME280;13848;49.018;12.078;2023-01-30T03:09:37;98048.34;;;-1.00;74.52
26083;BME280;13848;49.018;12.078;2023-01-30T03:12:11;98043.19;;;-0.92;73.47
26083;BME280;13848;49.018;12.078;2023-01-30T03:14:46;98050.88;;;-1.08;73.70
26083;BME280;13848;49.018;12.078;2023-01-30T03:17:15;98044.47;;;-1.15;74.20
26083;BME280;13848;49.018;12.078;2023-01-30T03:19:43;98025.53;;;-1.20;74.34
26083;BME280;13848;49.018;12.078;2023-01-30T03:22:09;98002.94;;;-1.05;73.87
26083;BME280;13848;49.018;12.078;2023-01-30T03:24:35;98005.47;;;-1.32;74.20
26083;BME280;13848;49.018;12.078;2023-01-30T03:27:04;98001.56;;;-1.28;74.83
26083;BME280;13848;49.018;12.078;2023-01-30T03:29:31;97947.84;;;-1.29;74.03
26083;BME280;13848;49.018;12.078;2023-01-30T03:31:57;97954.25;;;-1.51;75.02
26083;BME280;13848;49.018;12.078;2023-01-30T03:34:24;97968.88;;;-1.47;75.32
26083;BME280;13848;49.018;12.078;2023-01-30T03:36:50;98016.03;;;-1.52;74.80
26083;BME280;13848;49.018;12.078;2023-01-30T03:39:16;98028.56;;;-1.35;74.62
26083;BME280;13848;49.018;12.078;2023-01-30T03:41:42;98018.13;;;-1.36;74.32
26083;BME280;13848;49.018;12.078;2023-01-30T03:44:08;98024.13;;;-1.24;74.79
26083;BME280;13848;49.018;12.078;2023-01-30T03:46:34;98036.66;;;-1.07;74.03
26083;BME280;13848;49.018;12.078;2023-01-30T03:49:00;98032.75;;;-1.03;74.32
26083;BME280;13848;49.018;12.078;2023-01-30T03:51:27;98047.50;;;-1.29;74.22
26083;BME280;13848;49.018;12.078;2023-01-30T03:53:53;98030.81;;;-1.20;74.29
26083;BME280;13848;49.018;12.078;2023-01-30T03:56:19;98015.22;;;-1.04;74.30
26083;BME280;13848;49.018;12.078;2023-01-30T03:58:45;98018.00;;;-1.15;73.82
26083;BME280;13848;49.018;12.078;2023-01-30T04:01:11;97994.34;;;-1.36;74.33
26083;BME280;13848;49.018;12.078;2023-01-30T04:03:37;97970.41;;;-1.44;75.28
26083;BME280;13848;49.018;12.078;2023-01-30T04:06:03;97970.41;;;-1.44;75.61
26083;BME280;13848;49.018;12.078;2023-01-30T04:08:30;97950.78;;;-1.61;76.04
26083;BME280;13848;49.018;12.078;2023-01-30T04:10:56;97939.50;;;-1.82;76.57
26083;BME280;13848;49.018;12.078;2023-01-30T04:13:22;97939.09;;;-1.78;76.67
26083;BME280;13848;49.018;12.078;2023-01-30T04:15:48;97938.13;;;-1.67;76.21
26083;BME280;13848;49.018;12.078;2023-01-30T04:18:14;97935.88;;;-1.72;76.65
26083;BME280;13848;49.018;12.078;2023-01-30T04:20:40;97935.88;;;-1.81;77.26
26083;BME280;13848;49.018;12.078;2023-01-30T04:23:06;97933.78;;;-1.68;76.96
26083;BME280;13848;49.018;12.078;2023-01-30T04:25:33;97943.41;;;-1.77;77.09
26083;BME280;13848;49.018;12.078;2023-01-30T04:27:59;97936.16;;;-1.65;76.57
26083;BME280;13848;49.018;12.078;2023-01-30T04:30:25;97942.84;;;-1.42;75.94
26083;BME280;13848;49.018;12.078;2023-01-30T04:32:51;97950.09;;;-1.73;77.31
26083;BME280;13848;49.018;12.078;2023-01-30T04:35:17;97948.81;;;-1.59;76.27
26083;BME280;13848;49.018;12.078;2023-01-30T04:37:43;97944.81;;;-1.44;75.89
26083;BME280;13848;49.018;12.078;2023-01-30T04:40:10;97926.28;;;-1.44;76.23
26083;BME280;13848;49.018;12.078;2023-01-30T04:42:37;97922.38;;;-1.30;75.92
26083;BME280;13848;49.018;12.078;2023-01-30T04:45:04;97919.19;;;-1.53;76.16
26083;BME280;13848;49.018;12.078;2023-01-30T04:47:30;97926.97;;;-1.51;76.37
26083;BME280;13848;49.018;12.078;2023-01-30T04:49:56;97932.78;;;-1.28;75.61
26083;BME280;13848;49.018;12.078;2023-01-30T04:52:22;97928.09;;;-1.44;75.43
26083;BME280;13848;49.018;12.078;2023-01-30T04:54:48;97925.03;;;-1.49;76.06
26083;BME280;13848;49.018;12.078;2023-01-30T04:57:14;97921.72;;;-1.61;76.34
26083;BME280;13848;49.018;12.078;2023-01-30T04:59:41;97920.59;;;-1.49;76.27
26083;BME280;13848;49.018;12.078;2023-01-30T05:02:07;97906.09;;;-1.35;75.29
26083;BME280;13848;49.018;12.078;2023-01-30T05:04:33;97915.84;;;-1.36;75.85
26083;BME280;13848;49.018;12.078;2023-01-30T05:06:58;97920.84;;;-1.52;76.30
26083;BME280;13848;49.018;12.078;2023-01-30T05:09:24;97912.50;;;-1.38;76.14
26083;BME280;13848;49.018;12.078;2023-01-30T05:11:50;97901.38;;;-1.41;76.03
26083;BME280;13848;49.018;12.078;2023-01-30T05:14:16;97894.81;;;-1.47;75.84
26083;BME280;13848;49.018;12.078;2023-01-30T05:16:43;97916.41;;;-1.51;76.67
26083;BME280;13848;49.018;12.078;2023-01-30T05:19:11;97911.78;;;-1.40;75.69
26083;BME280;13848;49.018;12.078;2023-01-30T05:21:37;97903.59;;;-1.37;75.96
26083;BME280;13848;49.018;12.078;2023-01-30T05:24:04;97910.84;;;-1.39;75.75
26083;BME280;13848;49.018;12.078;2023-01-30T05:26:30;97916.94;;;-1.28;76.06
26083;BME280;13848;49.018;12.078;2023-01-30T05:28:56;97900.22;;;-1.19;75.53
26083;BME280;13848;49.018;12.078;2023-01-30T05:31:22;97911.06;;;-1.22;75.32
26083;BME280;13848;49.018;12.078;2023-01-30T05:33:51;97911.09;;;-1.32;75.55
26083;BME280;13848;49.018;12.078;2023-01-30T05:36:18;97911.06;;;-1.22;74.87
26083;BME280;13848;49.018;12.078;2023-01-30T05:38:45;97916.94;;;-1.28;75.19
26083;BME280;13848;49.018;12.078;2023-01-30T05:41:12;97913.03;;;-1.24;75.06
26083;BME280;13848;49.018;12.078;2023-01-30T05:43:38;97914.13;;;-1.17;75.45
26083;BME280;13848;49.018;12.078;2023-01-30T05:46:05;97919.16;;;-1.24;75.49
26083;BME280;13848;49.018;12.078;2023-01-30T05:48:32;97913.72;;;-1.22;75.56
26083;BME280;13848;49.018;12.078;2023-01-30T05:51:00;97916.50;;;-1.34;76.58
26083;BME280;13848;49.018;12.078;2023-01-30T05:53:28;97905.66;;;-1.30;76.70
26083;BME280;13848;49.018;12.078;2023-01-30T05:55:55;97901.34;;;-1.31;76.18
26083;BME280;13848;49.018;12.078;2023-01-30T05:58:21;97892.72;;;-1.34;76.94
26083;BME280;13848;49.018;12.078;2023-01-30T06:00:47;97896.75;;;-1.29;76.45
26083;BME280;13848;49.018;12.078;2023-01-30T06:03:13;97888.53;;;-1.26;76.42
26083;BME280;13848;49.018;12.078;2023-01-30T06:05:39;97886.69;;;-1.16;75.92
26083;BME280;13848;49.018;12.078;2023-01-30T06:08:06;97885.75;;;-1.15;75.72
26083;BME280;13848;49.018;12.078;2023-01-30T06:10:32;97883.78;;;-1.13;76.15
26083;BME280;13848;49.018;12.078;2023-01-30T06:12:58;97867.38;;;-1.26;75.88
26083;BME280;13848;49.018;12.078;2023-01-30T06:15:25;97875.44;;;-1.18;76.07
26083;BME280;13848;49.018;12.078;2023-01-30T06:17:51;97876.41;;;-1.19;75.98
26083;BME280;13848;49.018;12.078;2023-01-30T06:20:17;97880.47;;;-1.25;76.39
26083;BME280;13848;49.018;12.078;2023-01-30T06:22:43;97868.16;;;-1.16;75.68
26083;BME280;13848;49.018;12.078;2023-01-30T06:25:11;97869.16;;;-1.17;75.59
26083;BME280;13848;49.018;12.078;2023-01-30T06:27:36;97859.56;;;-1.18;76.15
26083;BME280;13848;49.018;12.078;2023-01-30T06:30:03;97850.13;;;-1.30;75.87
26083;BME280;13848;49.018;12.078;2023-01-30T06:32:29;97844.06;;;-1.60;77.02
26083;BME280;13848;49.018;12.078;2023-01-30T06:34:55;97848.91;;;-1.46;77.00
26083;BME280;13848;49.018;12.078;2023-01-30T06:37:21;97856.97;;;-1.47;76.74
26083;BME280;13848;49.018;12.078;2023-01-30T06:39:47;97856.81;;;-1.36;76.97
26083;BME280;13848;49.018;12.078;2023-01-30T06:42:14;97856.81;;;-1.46;76.97
26083;BME280;13848;49.018;12.078;2023-01-30T06:44:40;97855.88;;;-1.45;76.23
26083;BME280;13848;49.018;12.078;2023-01-30T06:47:06;97862.78;;;-1.34;76.32
26083;BME280;13848;49.018;12.078;2023-01-30T06:49:32;97856.25;;;-1.40;76.27
26083;BME280;13848;49.018;12.078;2023-01-30T06:51:58;97853.44;;;-1.28;76.54
26083;BME280;13848;49.018;12.078;2023-01-30T06:54:24;97862.59;;;-1.13;76.50
26083;BME280;13848;49.018;12.078;2023-01-30T06:56:50;97854.69;;;-1.23;76.03
26083;BME280;13848;49.018;12.078;2023-01-30T06:59:17;97845.50;;;-1.28;76.38
26083;BME280;13848;49.018;12.078;2023-01-30T07:01:43;97852.88;;;-1.22;76.03
26083;BME280;13848;49.018;12.078;2023-01-30T07:04:09;97847.00;;;-1.16;75.52
26083;BME280;13848;49.018;12.078;2023-01-30T07:06:35;97864.53;;;-1.05;75.13
26083;BME280;13848;49.018;12.078;2023-01-30T07:09:01;97845.88;;;-1.04;74.80
26083;BME280;13848;49.018;12.078;2023-01-30T07:11:27;97850.31;;;-1.04;74.99
26083;BME280;13848;49.018;12.078;2023-01-30T07:13:52;97853.41;;;-1.09;75.11
26083;BME280;13848;49.018;12.078;2023-01-30T07:16:20;97866.19;;;-1.04;74.69
26083;BME280;13848;49.018;12.078;2023-01-30T07:18:46;97861.69;;;-0.94;74.62
26083;BME280;13848;49.018;12.078;2023-01-30T07:21:12;97865.16;;;-0.84;74.53
26083;BME280;13848;49.018;12.078;2023-01-30T07:23:37;97858.63;;;-0.90;74.78
26083;BME280;13848;49.018;12.078;2023-01-30T07:26:04;97855.97;;;-0.90;75.34
26083;BME280;13848;49.018;12.078;2023-01-30T07:28:30;97850.19;;;-0.75;74.90
26083;BME280;13848;49.018;12.078;2023-01-30T07:30:58;97843.69;;;-0.81;74.55
26083;BME280;13848;49.018;12.078;2023-01-30T07:33:25;97830.19;;;-0.88;75.26
26083;BME280;13848;49.018;12.078;2023-01-30T07:35:52;97826.00;;;-0.81;75.33
26083;BME280;13848;49.018;12.078;2023-01-30T07:38:18;97824.63;;;-0.85;75.19
26083;BME280;13848;49.018;12.078;2023-01-30T07:40:44;97823.25;;;-0.89;75.03
26083;BME280;13848;49.018;12.078;2023-01-30T07:43:11;97822.72;;;-0.92;74.53
26083;BME280;13848;49.018;12.078;2023-01-30T07:45:39;97821.56;;;-0.90;75.50
26083;BME280;13848;49.018;12.078;2023-01-30T07:48:05;97822.06;;;-0.76;74.65
26083;BME280;13848;49.018;12.078;2023-01-30T07:50:33;97833.44;;;-0.66;74.81
26083;BME280;13848;49.018;12.078;2023-01-30T07:53:01;97823.31;;;-0.53;75.17
26083;BME280;13848;49.018;12.078;2023-01-30T07:55:29;97814.50;;;-0.44;73.82
26083;BME280;13848;49.018;12.078;2023-01-30T07:57:55;97813.03;;;-0.56;74.93
26083;BME280;13848;49.018;12.078;2023-01-30T08:00:21;97818.41;;;-0.48;74.27
26083;BME280;13848;49.018;12.078;2023-01-30T08:02:47;97811.25;;;-0.38;74.86
26083;BME280;13848;49.018;12.078;2023-01-30T08:05:13;97813.00;;;-0.29;74.59
26083;BME280;13848;49.018;12.078;2023-01-30T08:07:40;97805.50;;;-0.15;74.54
26083;BME280;13848;49.018;12.078;2023-01-30T08:10:07;97809.38;;;-0.28;74.42
26083;BME280;13848;49.018;12.078;2023-01-30T08:12:34;97826.53;;;-0.32;75.48
26083;BME280;13848;49.018;12.078;2023-01-30T08:14:59;97816.50;;;-0.28;75.39
26083;BME280;13848;49.018;12.078;2023-01-30T08:17:25;97815.34;;;-0.25;74.31
26083;BME280;13848;49.018;12.078;2023-01-30T08:19:51;97826.94;;;-0.27;74.86
26083;BME280;13848;49.018;12.078;2023-01-30T08:22:17;97832.91;;;-0.24;74.15
26083;BME280;13848;49.018;12.078;2023-01-30T08:24:44;97830.34;;;-0.16;75.28
26083;BME280;13848;49.018;12.078;2023-01-30T08:27:10;97828.59;;;-0.08;74.69
26083;BME280;13848;49.018;12.078;2023-01-30T08:29:36;97811.25;;;-0.02;73.64
26083;BME280;13848;49.018;12.078;2023-01-30T08:32:02;97813.69;;;0.09;75.59
26083;BME280;13848;49.018;12.078;2023-01-30T08:34:28;97812.16;;;0.50;74.27
26083;BME280;13848;49.018;12.078;2023-01-30T08:36:54;97796.78;;;0.10;73.80
26083;BME280;13848;49.018;12.078;2023-01-30T08:39:20;97785.06;;;-0.05;74.17
26083;BME280;13848;49.018;12.078;2023-01-30T08:41:48;97785.38;;;-0.08;74.91
26083;BME280;13848;49.018;12.078;2023-01-30T08:44:13;97788.09;;;0.00;73.82
26083;BME280;13848;49.018;12.078;2023-01-30T08:46:40;97786.13;;;0.02;75.12
26083;BME280;13848;49.018;12.078;2023-01-30T08:49:06;97782.91;;;0.16;74.39
26083;BME280;13848;49.018;12.078;2023-01-30T08:51:32;97781.78;;;0.19;73.60
26083;BME280;13848;49.018;12.078;2023-01-30T08:53:58;97773.25;;;0.33;73.72
26083;BME280;13848;49.018;12.078;2023-01-30T08:56:24;97768.50;;;0.37;72.79
26083;BME280;13848;49.018;12.078;2023-01-30T08:58:51;97765.47;;;0.32;73.05
26083;BME280;13848;49.018;12.078;2023-01-30T09:01:17;97760.91;;;0.42;72.99
26083;BME280;13848;49.018;12.078;2023-01-30T09:03:43;97755.28;;;0.45;72.48
26083;BME280;13848;49.018;12.078;2023-01-30T09:06:09;97760.22;;;0.66;72.55
26083;BME280;13848;49.018;12.078;2023-01-30T09:08:35;97752.97;;;1.18;71.86
26083;BME280;13848;49.018;12.078;2023-01-30T09:11:02;97747.56;;;1.44;71.54
26083;BME280;13848;49.018;12.078;2023-01-30T09:13:29;97724.88;;;1.82;70.54
26083;BME280;13848;49.018;12.078;2023-01-30T09:15:57;97738.09;;;1.33;69.30
26083;BME280;13848;49.018;12.078;2023-01-30T09:18:23;97735.09;;;1.28;70.04
26083;BME280;13848;49.018;12.078;2023-01-30T09:20:49;97727.53;;;1.82;71.40
26083;BME280;13848;49.018;12.078;2023-01-30T09:23:16;97714.72;;;2.19;69.52
26083;BME280;13848;49.018;12.078;2023-01-30T09:25:43;97713.53;;;2.29;68.89
26083;BME280;13848;49.018;12.078;2023-01-30T09:28:09;97722.56;;;2.04;68.43
26083;BME280;13848;49.018;12.078;2023-01-30T09:30:35;97710.94;;;1.80;68.57
26083;BME280;13848;49.018;12.078;2023-01-30T09:33:03;97714.53;;;1.47;68.65
26083;BME280;13848;49.018;12.078;2023-01-30T09:35:29;97722.16;;;1.42;69.17
26083;BME280;13848;49.018;12.078;2023-01-30T09:37:55;97717.16;;;1.39;70.26
26083;BME280;13848;49.018;12.078;2023-01-30T09:40:22;97705.25;;;1.51;70.28
26083;BME280;13848;49.018;12.078;2023-01-30T09:43:06;97707.84;;;1.26;70.05
26083;BME280;13848;49.018;12.078;2023-01-30T09:45:42;97709.84;;;1.16;70.34
26083;BME280;13848;49.018;12.078;2023-01-30T09:48:20;97702.06;;;1.39;70.53
26083;BME280;13848;49.018;12.078;2023-01-30T09:51:09;97697.75;;;1.30;70.91
26083;BME280;13848;49.018;12.078;2023-01-30T09:53:46;97703.53;;;1.17;70.58
26083;BME280;13848;49.018;12.078;2023-01-30T09:56:15;97686.13;;;1.23;70.56
26083;BME280;13848;49.018;12.078;2023-01-30T09:58:44;97685.13;;;1.24;71.14
26083;BME280;13848;49.018;12.078;2023-01-30T10:01:17;97687.72;;;1.16;71.55
26083;BME280;13848;49.018;12.078;2023-01-30T10:03:57;97691.56;;;1.21;70.77
26083;BME280;13848;49.018;12.078;2023-01-30T10:06:26;97709.44;;;1.03;71.81
26083;BME280;13848;49.018;12.078;2023-01-30T10:08:56;97694.19;;;1.05;71.77
26083;BME280;13848;49.018;12.078;2023-01-30T10:11:32;97676.88;;;0.85;72.78
26083;BME280;13848;49.018;12.078;2023-01-30T10:14:15;97670.84;;;0.74;73.59
26083;BME280;13848;49.018;12.078;2023-01-30T10:16:52;97670.56;;;0.77;74.85
26083;BME280;13848;49.018;12.078;2023-01-30T10:19:35;97672.53;;;0.75;74.96
26083;BME280;13848;49.018;12.078;2023-01-30T10:22:13;97671.91;;;0.82;74.68
26083;BME280;13848;49.018;12.078;2023-01-30T10:24:51;97690.78;;;0.78;76.35
26083;BME280;13848;49.018;12.078;2023-01-30T10:27:21;97672.53;;;0.75;76.00
26083;BME280;13848;49.018;12.078;2023-01-30T10:29:51;97671.38;;;0.78;76.72
26083;BME280;13848;49.018;12.078;2023-01-30T10:32:24;97672.22;;;0.78;77.27
26083;BME280;13848;49.018;12.078;2023-01-30T10:34:57;97669.06;;;0.83;77.66
26083;BME280;13848;49.018;12.078;2023-01-30T10:37:28;97674.03;;;0.86;77.03
26083;BME280;13848;49.018;12.078;2023-01-30T10:40:00;97659.94;;;0.77;77.46
26083;BME280;13848;49.018;12.078;2023-01-30T10:42:33;97664.41;;;0.77;77.75
26083;BME280;13848;49.018;12.078;2023-01-30T10:45:08;97663.78;;;0.83;78.01
26083;BME280;13848;49.018;12.078;2023-01-30T10:47:47;97644.38;;;0.83;78.29
26083;BME280;13848;49.018;12.078;2023-01-30T10:50:20;97650.69;;;0.98;78.42
26083;BME280;13848;49.018;12.078;2023-01-30T10:52:53;97643.25;;;0.93;78.82
26083;BME280;13848;49.018;12.078;2023-01-30T10:55:28;97649.38;;;0.94;78.70
26083;BME280;13848;49.018;12.078;2023-01-30T10:58:01;97631.47;;;1.04;78.30
26083;BME280;13848;49.018;12.078;2023-01-30T11:00:35;97638.16;;;1.16;78.35
26083;BME280;13848;49.018;12.078;2023-01-30T11:03:21;97643.72;;;0.97;79.43
26083;BME280;13848;49.018;12.078;2023-01-30T11:05:52;97638.75;;;0.94;79.47
26083;BME280;13848;49.018;12.078;2023-01-30T11:08:21;97636.59;;;0.89;79.59
26083;BME280;13848;49.018;12.078;2023-01-30T11:10:48;97631.09;;;0.83;81.04
26083;BME280;13848;49.018;12.078;2023-01-30T11:13:17;97631.75;;;0.93;80.74
26083;BME280;13848;49.018;12.078;2023-01-30T11:15:45;97625.63;;;0.92;80.92
26083;BME280;13848;49.018;12.078;2023-01-30T11:18:12;97633.72;;;0.74;81.50
26083;BME280;13848;49.018;12.078;2023-01-30T11:20:40;97629.69;;;0.62;82.96
26083;BME280;13848;49.018;12.078;2023-01-30T11:23:22;97632.03;;;0.65;82.99
26083;BME280;13848;49.018;12.078;2023-01-30T11:25:49;97637.72;;;0.87;82.33
26083;BME280;13848;49.018;12.078;2023-01-30T11:28:16;97627.97;;;0.87;82.20
26083;BME280;13848;49.018;12.078;2023-01-30T11:30:42;97617.00;;;0.90;81.38
26083;BME280;13848;49.018;12.078;2023-01-30T11:33:11;97610.88;;;0.90;81.27
26083;BME280;13848;49.018;12.078;2023-01-30T11:35:42;97600.78;;;0.93;81.07
26083;BME280;13848;49.018;12.078;2023-01-30T11:38:16;97598.44;;;0.90;81.31
26083;BME280;13848;49.018;12.078;2023-01-30T11:40:44;97599.28;;;0.99;80.39
26083;BME280;13848;49.018;12.078;2023-01-30T11:43:11;97595.47;;;1.01;80.54
26083;BME280;13848;49.018;12.078;2023-01-30T11:45:39;97590.31;;;1.08;80.27
26083;BME280;13848;49.018;12.078;2023-01-30T11:48:12;97593.63;;;1.02;80.35
26083;BME280;13848;49.018;12.078;2023-01-30T11:50:43;97606.09;;;1.10;80.70
26083;BME280;13848;49.018;12.078;2023-01-30T11:53:25;97605.25;;;1.09;80.98
26083;BME280;13848;49.018;12.078;2023-01-30T11:55:53;97607.59;;;1.12;81.03
26083;BME280;13848;49.018;12.078;2023-01-30T11:58:20;97600.97;;;1.16;81.07
26083;BME280;13848;49.018;12.078;2023-01-30T12:00:47;97602.75;;;1.16;81.73
26083;BME280;13848;49.018;12.078;2023-01-30T12:03:16;97599.31;;;1.23;81.12
26083;BME280;13848;49.018;12.078;2023-01-30T12:05:44;97587.50;;;1.26;81.19
26083;BME280;13848;49.018;12.078;2023-01-30T12:08:21;97587.34;;;1.27;81.22
26083;BME280;13848;49.018;12.078;2023-01-30T12:10:50;97582.03;;;1.27;81.84
26083;BME280;13848;49.018;12.078;2023-01-30T12:13:21;97589.19;;;1.35;82.02
26083;BME280;13848;49.018;12.078;2023-01-30T12:15:52;97577.38;;;1.38;81.72
26083;BME280;13848;49.018;12.078;2023-01-30T12:18:26;97579.38;;;1.36;81.78
26083;BME280;13848;49.018;12.078;2023-01-30T12:20:59;97569.09;;;1.32;81.97
26083;BME280;13848;49.018;12.078;2023-01-30T12:23:32;97578.06;;;1.31;81.90
26083;BME280;13848;49.018;12.078;2023-01-30T12:26:08;97576.41;;;1.30;82.15
26083;BME280;13848;49.018;12.078;2023-01-30T12:28:42;97575.72;;;1.20;82.78
26083;BME280;13848;49.018;12.078;2023-01-30T12:31:15;97566.28;;;1.18;82.99
26083;BME280;13848;49.018;12.078;2023-01-30T12:33:44;97562.94;;;1.16;83.02
26083;BME280;13848;49.018;12.078;2023-01-30T12:36:18;97559.47;;;1.23;83.03
26083;BME280;13848;49.018;12.078;2023-01-30T12:38:56;97561.78;;;1.18;84.11
26083;BME280;13848;49.018;12.078;2023-01-30T12:41:51;97557.81;;;1.06;84.50
26083;BME280;13848;49.018;12.078;2023-01-30T12:44:43;97559.47;;;1.15;84.26
26083;BME280;13848;49.018;12.078;2023-01-30T12:47:21;97561.44;;;1.21;84.31
26083;BME280;13848;49.018;12.078;2023-01-30T12:50:03;97562.63;;;1.11;85.13
26083;BME280;13848;49.018;12.078;2023-01-30T12:52:54;97579.06;;;1.06;85.59
26083;BME280;13848;49.018;12.078;2023-01-30T12:55:32;97580.19;;;1.03;86.27
26083;BME280;13848;49.018;12.078;2023-01-30T12:58:05;97581.53;;;1.08;85.33
26083;BME280;13848;49.018;12.078;2023-01-30T13:00:47;97577.56;;;1.12;85.35
26083;BME280;13848;49.018;12.078;2023-01-30T13:03:22;97585.34;;;1.13;85.86